Aeroporto :
LOGIN :

Iscrizione | Disclaimer

   EN    FR    IT 

 










Sommario :    VFR   VFR Marginale   IFR   IFR Intensivo   IFR Molto Intensivo
Visibilità : 
Base nubi : 
>= 8 km
>= 3000ft
5 / 8 km
1000 / 3000 ft
1500m / 5 km
500 / 1000 ft
800 / 1500m
200 / 500 ft
< 800m
< 200 ft
Simboli :   Temporali  Nebbia  Neve Forte  Precipitazioni Forti  Vento > 20 kt
SIGMETs :   Varie  Temporali  Ghiacco  Turbolenza  Onda orograficha  Ceneri Vulcaniche






- Altitudine del aeroporto : 909 ft
- Codice IATA : KSF


EDVK - Kassel Calden

ULTIMO METAR :
  • 200920Z VRB01KT 9999 OVC019 03/01 Q1046

METARs OBSOLETI :
  • 200850Z VRB02KT 9999 OVC019 02/01 Q1046
  • 200820Z VRB02KT 9999 OVC020 02/01 Q1046
  • 200750Z 31003KT 280V350 8000 OVC018 01/01 Q1046
  • 200720Z 26003KT 9999 FEW001 OVC020 02/01 Q1045
  • 200650Z 30003KT 9999 OVC021 01/01 Q1045

TAF TAF EDVK
Valido dal 20 a 09 ore il 20 a 18 ore UTC


200800Z 2009/2018 VRB03KT 9999 BKN025



MetMap, La meteo Aeronautica in un colpo d'occhio ! - Copyright ORBIFLY Dicembre 2007 - Disclaimer

ORBIFLY MET'MAP TEAM :

Programmazione e sviluppo : Alexandra Zaïnal
Concezione : Baudouin d'Aumeries
Aiuto per la programmazione : Marc-Olivier Méhu
Supporto tecnico e logistico : Manuel Goepfert
Aiuto per la traduzione : Arnaldo La Scala

Contatto : metmap@orbifly.com




FONTI E CREDITI :

   NOAA